Time;durP1;ratioP1;P1;durP2;ratioP2;P2;SDS_P1;SDS_P2;PMS_P1;PMS_P2;Temp;Humidity;BMP_temperature;BMP_pressure;BME280_temperature;BME280_humidity;BME280_pressure;Samples;Min_cycle;Max_cycle;Signal;HPM_P1;HPM_P2
2023/11/07 00:07:00;;;;;;;6.27;3.43;;;9.30;99.90;;;;;;6252530;22;20592;-86
2023/11/07 00:27:33;;;;;;;5.83;3.70;;;8.60;99.90;;;;;;6255962;22;20522;-89
2023/11/07 00:52:31;;;;;;;5.43;4.23;;;8.20;99.90;;;;;;6260561;22;20228;-86
2023/11/07 01:18:27;;;;;;;7.43;4.57;;;7.60;99.90;;;;;;6267765;22;20152;-86
2023/11/07 01:48:16;;;;;;;7.03;4.60;;;7.20;99.90;;;;;;5833006;24;20547;-86
2023/11/07 02:08:49;;;;;;;7.67;4.87;;;7.00;99.90;;;;;;5877408;24;20370;-86
2023/11/07 02:34:36;;;;;;;7.50;5.30;;;6.90;99.90;;;;;;5929153;24;20221;-87
2023/11/07 02:38:56;;;;;;;8.07;4.90;;;6.70;99.90;;;;;;5916478;24;20521;-86
2023/11/07 02:59:45;;;;;;;9.40;5.47;;;6.60;99.90;;;;;;5854754;24;20206;-85
2023/11/07 03:29:53;;;;;;;6.93;5.10;;;7.00;99.90;;;;;;5997691;23;20589;-85
2023/11/07 04:15:45;;;;;;;7.53;5.13;;;7.10;99.90;;;;;;6053289;23;20626;-85
2023/11/07 04:20:05;;;;;;;7.40;4.90;;;7.10;99.90;;;;;;5966812;23;20349;-88
2023/11/07 04:41:06;;;;;;;7.90;4.83;;;7.50;99.90;;;;;;5993606;23;20177;-86
2023/11/07 04:45:25;;;;;;;6.27;4.63;;;7.60;99.90;;;;;;5898385;24;20239;-87
2023/11/07 05:21:28;;;;;;;7.37;5.13;;;7.60;99.90;;;;;;6279975;22;20180;-86
2023/11/07 05:51:19;;;;;;;6.57;4.37;;;7.80;99.90;;;;;;5930988;24;20537;-86
2023/11/07 06:17:02;;;;;;;7.97;4.30;;;8.40;99.90;;;;;;5780384;24;20595;-82
2023/11/07 06:37:03;;;;;;;7.13;4.23;;;8.80;99.90;;;;;;5682743;24;20181;-84
2023/11/07 07:02:55;;;;;;;7.90;4.10;;;9.30;99.90;;;;;;6067157;22;20304;-83
2023/11/07 07:33:05;;;;;;;5.53;3.90;;;9.40;99.90;;;;;;5886529;23;20472;-85
2023/11/07 07:53:37;;;;;;;5.27;3.90;;;10.00;99.90;;;;;;5864224;23;20536;-82
2023/11/07 08:23:22;;;;;;;5.60;3.03;;;10.90;99.90;;;;;;5723386;24;20210;-81
2023/11/07 08:44:04;;;;;;;6.67;2.57;;;11.40;99.90;;;;;;5573476;24;20733;-83
2023/11/07 09:24:43;;;;;;;2.67;2.33;;;12.00;95.20;;;;;;5753833;24;20188;-81
2023/11/07 09:49:36;;;;;;;4.47;2.47;;;12.30;93.70;;;;;;5652319;24;20350;-80
2023/11/07 10:10:18;;;;;;;4.53;2.60;;;12.60;94.40;;;;;;5828477;23;20611;-84
2023/11/07 10:40:18;;;;;;;4.23;2.40;;;12.90;91.60;;;;;;5712396;24;20752;-80
2023/11/07 11:01:05;;;;;;;2.50;2.30;;;12.80;91.20;;;;;;5710859;24;20224;-85
2023/11/07 11:31:30;;;;;;;3.17;2.30;;;12.90;91.90;;;;;;5541516;24;20234;-82
2023/11/07 11:56:19;;;;;;;2.83;2.13;;;13.00;91.10;;;;;;5743809;23;20621;-81
2023/11/07 12:17:10;;;;;;;3.70;2.40;;;12.90;90.50;;;;;;5645372;24;20435;-82
2023/11/07 13:07:18;;;;;;;2.63;2.27;;;12.90;90.40;;;;;;5729704;23;20687;-83
2023/11/07 14:18:48;;;;;;;3.07;2.50;;;11.60;94.80;;;;;;5721356;24;20311;-83
2023/11/07 14:53:43;;;;;;;3.67;2.60;;;10.70;98.90;;;;;;5591772;24;20582;-83
2023/11/07 15:14:54;;;;;;;5.37;4.00;;;9.70;99.90;;;;;;5702095;24;20261;-84
2023/11/07 15:19:00;;;;;;;7.83;3.90;;;9.50;99.90;;;;;;5726943;24;20847;-84
2023/11/07 15:40:01;;;;;;;6.17;3.60;;;9.10;99.90;;;;;;5737223;24;20398;-85
2023/11/07 15:44:21;;;;;;;7.67;3.53;;;9.00;99.90;;;;;;5622177;24;20270;-86
2023/11/07 16:14:48;;;;;;;6.87;3.67;;;9.60;99.90;;;;;;5802973;23;20510;-83
2023/11/07 16:40:51;;;;;;;5.00;4.00;;;10.30;99.90;;;;;;5721774;24;20325;-84
2023/11/07 16:45:10;;;;;;;6.73;4.20;;;10.30;99.90;;;;;;5660859;24;20489;-85
2023/11/07 17:21:18;;;;;;;6.07;4.57;;;10.50;99.90;;;;;;5937507;23;20171;-86
2023/11/07 17:51:27;;;;;;;10.80;6.53;;;10.40;99.90;;;;;;5697973;24;20518;-82
2023/11/07 18:17:03;;;;;;;12.43;9.13;;;10.50;99.90;;;;;;5828606;24;20480;-83
2023/11/07 18:42:26;;;;;;;13.33;9.80;;;9.80;99.90;;;;;;5848377;24;20171;-86
2023/11/07 19:52:12;;;;;;;19.97;14.73;;;9.70;99.90;;;;;;6027804;23;20906;-89
2023/11/07 20:18:07;;;;;;;17.27;12.83;;;9.70;99.90;;;;;;5975544;24;20182;-85
2023/11/07 20:48:35;;;;;;;15.47;11.67;;;9.70;99.90;;;;;;6021859;23;20193;-87
2023/11/07 21:19:01;;;;;;;16.20;11.27;;;9.60;99.90;;;;;;5849017;24;20633;-86
2023/11/07 21:49:29;;;;;;;15.93;10.67;;;9.20;99.90;;;;;;5907347;24;20264;-86
2023/11/07 21:53:54;;;;;;;16.00;11.37;;;9.00;99.90;;;;;;5799735;24;20649;-85
2023/11/07 22:09:12;;;;;;;18.07;11.87;;;9.10;99.90;;;;;;6209995;23;20933;-85
2023/11/07 22:35:02;;;;;;;14.40;10.33;;;8.40;99.90;;;;;;5950523;23;20211;-90
2023/11/07 22:39:16;;;;;;;16.70;10.60;;;8.30;99.90;;;;;;5934045;24;20190;-88
2023/11/07 23:00:15;;;;;;;16.67;10.13;;;7.70;99.90;;;;;;5824748;24;20258;-89
